sensor_id;sensor_type;location;lat;lon;timestamp;P1;durP1;ratioP1;P2;durP2;ratioP2
71207;SDS011;58938;49.868;8.646;2022-10-31T00:00:44;16.90;;;7.63;;
71207;SDS011;58938;49.868;8.646;2022-10-31T00:03:10;16.00;;;8.20;;
71207;SDS011;58938;49.868;8.646;2022-10-31T00:05:36;18.40;;;8.85;;
71207;SDS011;58938;49.868;8.646;2022-10-31T00:08:05;18.17;;;9.25;;
71207;SDS011;58938;49.868;8.646;2022-10-31T00:10:31;18.20;;;8.50;;
71207;SDS011;58938;49.868;8.646;2022-10-31T00:12:56;20.00;;;8.43;;
71207;SDS011;58938;49.868;8.646;2022-10-31T00:15:22;18.17;;;8.13;;
71207;SDS011;58938;49.868;8.646;2022-10-31T00:17:47;16.27;;;7.87;;
71207;SDS011;58938;49.868;8.646;2022-10-31T00:20:13;18.37;;;9.17;;
71207;SDS011;58938;49.868;8.646;2022-10-31T00:22:39;17.15;;;8.68;;
71207;SDS011;58938;49.868;8.646;2022-10-31T00:25:04;16.20;;;8.77;;
71207;SDS011;58938;49.868;8.646;2022-10-31T00:27:30;17.63;;;8.77;;
71207;SDS011;58938;49.868;8.646;2022-10-31T00:29:55;18.95;;;9.32;;
71207;SDS011;58938;49.868;8.646;2022-10-31T00:32:21;21.77;;;9.43;;
71207;SDS011;58938;49.868;8.646;2022-10-31T00:34:46;19.13;;;9.40;;
71207;SDS011;58938;49.868;8.646;2022-10-31T00:37:12;18.48;;;8.82;;
71207;SDS011;58938;49.868;8.646;2022-10-31T00:39:37;16.73;;;8.90;;
71207;SDS011;58938;49.868;8.646;2022-10-31T00:42:03;15.77;;;8.77;;
71207;SDS011;58938;49.868;8.646;2022-10-31T00:44:28;15.32;;;8.40;;
71207;SDS011;58938;49.868;8.646;2022-10-31T00:46:54;17.60;;;9.00;;
71207;SDS011;58938;49.868;8.646;2022-10-31T00:49:19;16.63;;;8.13;;
71207;SDS011;58938;49.868;8.646;2022-10-31T00:51:45;13.88;;;8.50;;
71207;SDS011;58938;49.868;8.646;2022-10-31T00:54:11;19.87;;;9.20;;
71207;SDS011;58938;49.868;8.646;2022-10-31T00:56:36;20.17;;;8.90;;
71207;SDS011;58938;49.868;8.646;2022-10-31T00:59:02;17.67;;;9.43;;
71207;SDS011;58938;49.868;8.646;2022-10-31T01:01:27;20.27;;;9.90;;
71207;SDS011;58938;49.868;8.646;2022-10-31T01:03:53;20.50;;;9.80;;
71207;SDS011;58938;49.868;8.646;2022-10-31T01:06:18;20.52;;;9.25;;
71207;SDS011;58938;49.868;8.646;2022-10-31T01:08:44;15.43;;;8.60;;
71207;SDS011;58938;49.868;8.646;2022-10-31T01:13:42;18.63;;;8.32;;
71207;SDS011;58938;49.868;8.646;2022-10-31T01:16:10;16.67;;;8.20;;
71207;SDS011;58938;49.868;8.646;2022-10-31T01:18:37;19.08;;;8.27;;
71207;SDS011;58938;49.868;8.646;2022-10-31T01:21:04;18.25;;;8.70;;
71207;SDS011;58938;49.868;8.646;2022-10-31T01:23:34;15.82;;;9.40;;
71207;SDS011;58938;49.868;8.646;2022-10-31T01:26:02;18.47;;;8.60;;
71207;SDS011;58938;49.868;8.646;2022-10-31T01:28:29;17.85;;;8.90;;
71207;SDS011;58938;49.868;8.646;2022-10-31T01:30:55;17.80;;;10.18;;
71207;SDS011;58938;49.868;8.646;2022-10-31T01:33:24;15.37;;;8.17;;
71207;SDS011;58938;49.868;8.646;2022-10-31T01:35:50;18.13;;;8.98;;
71207;SDS011;58938;49.868;8.646;2022-10-31T01:38:15;21.83;;;9.13;;
71207;SDS011;58938;49.868;8.646;2022-10-31T01:40:41;19.10;;;8.67;;
71207;SDS011;58938;49.868;8.646;2022-10-31T01:43:09;17.25;;;8.68;;
71207;SDS011;58938;49.868;8.646;2022-10-31T01:45:38;15.05;;;9.02;;
71207;SDS011;58938;49.868;8.646;2022-10-31T01:48:04;20.60;;;8.50;;
71207;SDS011;58938;49.868;8.646;2022-10-31T01:50:34;19.52;;;8.63;;
71207;SDS011;58938;49.868;8.646;2022-10-31T01:53:02;19.13;;;9.32;;
71207;SDS011;58938;49.868;8.646;2022-10-31T01:55:33;16.05;;;9.45;;
71207;SDS011;58938;49.868;8.646;2022-10-31T01:58:10;17.60;;;8.23;;
71207;SDS011;58938;49.868;8.646;2022-10-31T02:00:39;14.23;;;7.90;;
71207;SDS011;58938;49.868;8.646;2022-10-31T02:03:08;15.82;;;8.27;;
71207;SDS011;58938;49.868;8.646;2022-10-31T02:05:34;14.98;;;8.23;;
71207;SDS011;58938;49.868;8.646;2022-10-31T02:10:44;15.07;;;7.97;;
71207;SDS011;58938;49.868;8.646;2022-10-31T02:13:10;18.20;;;8.23;;
71207;SDS011;58938;49.868;8.646;2022-10-31T02:15:38;13.23;;;8.38;;
71207;SDS011;58938;49.868;8.646;2022-10-31T02:18:05;16.73;;;8.38;;
71207;SDS011;58938;49.868;8.646;2022-10-31T02:20:33;16.70;;;7.80;;
71207;SDS011;58938;49.868;8.646;2022-10-31T02:25:55;15.82;;;8.00;;
71207;SDS011;58938;49.868;8.646;2022-10-31T02:31:08;15.77;;;7.07;;
71207;SDS011;58938;49.868;8.646;2022-10-31T02:34:01;15.80;;;7.90;;
71207;SDS011;58938;49.868;8.646;2022-10-31T02:36:36;17.10;;;8.05;;
71207;SDS011;58938;49.868;8.646;2022-10-31T02:39:18;15.23;;;7.65;;
71207;SDS011;58938;49.868;8.646;2022-10-31T02:47:38;21.83;;;8.70;;
71207;SDS011;58938;49.868;8.646;2022-10-31T02:52:32;19.33;;;8.73;;
71207;SDS011;58938;49.868;8.646;2022-10-31T02:58:01;17.90;;;7.25;;
71207;SDS011;58938;49.868;8.646;2022-10-31T03:00:31;19.83;;;7.67;;
71207;SDS011;58938;49.868;8.646;2022-10-31T03:05:57;15.95;;;7.07;;
71207;SDS011;58938;49.868;8.646;2022-10-31T03:11:37;15.70;;;7.93;;
71207;SDS011;58938;49.868;8.646;2022-10-31T03:14:20;16.03;;;7.10;;
71207;SDS011;58938;49.868;8.646;2022-10-31T03:16:50;12.25;;;6.55;;
71207;SDS011;58938;49.868;8.646;2022-10-31T03:19:18;13.10;;;6.28;;
71207;SDS011;58938;49.868;8.646;2022-10-31T03:21:55;12.93;;;6.47;;
71207;SDS011;58938;49.868;8.646;2022-10-31T03:24:27;16.88;;;6.90;;
71207;SDS011;58938;49.868;8.646;2022-10-31T03:27:00;14.73;;;6.83;;
71207;SDS011;58938;49.868;8.646;2022-10-31T03:29:30;10.65;;;6.03;;
71207;SDS011;58938;49.868;8.646;2022-10-31T03:32:03;13.15;;;6.30;;
71207;SDS011;58938;49.868;8.646;2022-10-31T03:34:32;12.45;;;6.47;;
71207;SDS011;58938;49.868;8.646;2022-10-31T03:37:02;12.55;;;6.55;;
71207;SDS011;58938;49.868;8.646;2022-10-31T03:39:31;11.77;;;6.40;;
71207;SDS011;58938;49.868;8.646;2022-10-31T03:42:11;13.45;;;6.38;;
71207;SDS011;58938;49.868;8.646;2022-10-31T03:44:41;16.27;;;6.70;;
71207;SDS011;58938;49.868;8.646;2022-10-31T03:47:10;12.30;;;5.88;;
71207;SDS011;58938;49.868;8.646;2022-10-31T03:49:35;14.13;;;6.33;;
71207;SDS011;58938;49.868;8.646;2022-10-31T03:54:42;14.48;;;6.88;;
71207;SDS011;58938;49.868;8.646;2022-10-31T03:57:22;15.07;;;6.47;;
71207;SDS011;58938;49.868;8.646;2022-10-31T03:59:59;13.40;;;6.20;;
71207;SDS011;58938;49.868;8.646;2022-10-31T04:02:30;15.70;;;7.25;;
71207;SDS011;58938;49.868;8.646;2022-10-31T04:04:57;14.15;;;6.00;;
71207;SDS011;58938;49.868;8.646;2022-10-31T04:07:25;14.80;;;6.72;;
71207;SDS011;58938;49.868;8.646;2022-10-31T04:09:55;12.40;;;6.33;;
71207;SDS011;58938;49.868;8.646;2022-10-31T04:12:22;12.60;;;6.68;;
71207;SDS011;58938;49.868;8.646;2022-10-31T04:14:50;15.00;;;7.30;;
71207;SDS011;58938;49.868;8.646;2022-10-31T04:17:17;14.82;;;7.53;;
71207;SDS011;58938;49.868;8.646;2022-10-31T04:19:46;16.58;;;6.47;;
71207;SDS011;58938;49.868;8.646;2022-10-31T04:22:12;12.53;;;6.50;;
71207;SDS011;58938;49.868;8.646;2022-10-31T04:24:39;16.00;;;6.95;;
71207;SDS011;58938;49.868;8.646;2022-10-31T04:27:05;14.48;;;6.88;;
71207;SDS011;58938;49.868;8.646;2022-10-31T04:29:31;12.27;;;6.10;;
71207;SDS011;58938;49.868;8.646;2022-10-31T04:31:56;14.32;;;6.85;;
71207;SDS011;58938;49.868;8.646;2022-10-31T04:34:22;15.60;;;6.83;;
71207;SDS011;58938;49.868;8.646;2022-10-31T04:36:47;12.60;;;7.03;;
71207;SDS011;58938;49.868;8.646;2022-10-31T04:39:13;13.55;;;7.57;;
71207;SDS011;58938;49.868;8.646;2022-10-31T04:41:38;15.53;;;6.50;;
71207;SDS011;58938;49.868;8.646;2022-10-31T04:44:04;15.03;;;6.43;;
71207;SDS011;58938;49.868;8.646;2022-10-31T04:46:30;14.80;;;6.60;;
71207;SDS011;58938;49.868;8.646;2022-10-31T04:48:55;12.53;;;5.63;;
71207;SDS011;58938;49.868;8.646;2022-10-31T04:51:21;16.48;;;6.38;;
71207;SDS011;58938;49.868;8.646;2022-10-31T04:53:47;13.43;;;6.43;;
71207;SDS011;58938;49.868;8.646;2022-10-31T04:56:12;15.37;;;6.77;;
71207;SDS011;58938;49.868;8.646;2022-10-31T04:58:38;12.77;;;6.30;;
71207;SDS011;58938;49.868;8.646;2022-10-31T05:01:03;12.80;;;5.90;;
71207;SDS011;58938;49.868;8.646;2022-10-31T05:03:29;12.23;;;6.70;;
71207;SDS011;58938;49.868;8.646;2022-10-31T05:05:54;14.65;;;5.95;;
71207;SDS011;58938;49.868;8.646;2022-10-31T05:08:20;13.50;;;7.00;;
71207;SDS011;58938;49.868;8.646;2022-10-31T05:10:45;14.80;;;6.60;;
71207;SDS011;58938;49.868;8.646;2022-10-31T05:13:11;17.10;;;6.63;;
71207;SDS011;58938;49.868;8.646;2022-10-31T05:15:36;11.77;;;6.53;;
71207;SDS011;58938;49.868;8.646;2022-10-31T05:18:02;15.80;;;6.68;;
71207;SDS011;58938;49.868;8.646;2022-10-31T05:20:28;18.20;;;6.73;;
71207;SDS011;58938;49.868;8.646;2022-10-31T05:22:55;17.30;;;7.50;;
71207;SDS011;58938;49.868;8.646;2022-10-31T05:25:23;16.25;;;6.90;;
71207;SDS011;58938;49.868;8.646;2022-10-31T05:27:51;15.73;;;7.05;;
71207;SDS011;58938;49.868;8.646;2022-10-31T05:30:21;13.30;;;6.50;;
71207;SDS011;58938;49.868;8.646;2022-10-31T05:32:52;15.57;;;6.40;;
71207;SDS011;58938;49.868;8.646;2022-10-31T05:35:18;18.25;;;8.48;;
71207;SDS011;58938;49.868;8.646;2022-10-31T05:37:49;15.63;;;6.93;;
71207;SDS011;58938;49.868;8.646;2022-10-31T05:40:15;16.00;;;6.90;;
71207;SDS011;58938;49.868;8.646;2022-10-31T05:42:42;22.80;;;6.60;;
71207;SDS011;58938;49.868;8.646;2022-10-31T05:45:09;11.70;;;6.60;;
71207;SDS011;58938;49.868;8.646;2022-10-31T05:47:36;15.70;;;7.97;;
71207;SDS011;58938;49.868;8.646;2022-10-31T05:50:03;14.27;;;7.50;;
71207;SDS011;58938;49.868;8.646;2022-10-31T05:52:29;16.88;;;7.63;;
71207;SDS011;58938;49.868;8.646;2022-10-31T05:54:55;19.97;;;8.30;;
71207;SDS011;58938;49.868;8.646;2022-10-31T05:57:20;17.80;;;8.73;;
71207;SDS011;58938;49.868;8.646;2022-10-31T05:59:46;15.55;;;8.38;;
71207;SDS011;58938;49.868;8.646;2022-10-31T06:02:11;24.50;;;12.10;;
71207;SDS011;58938;49.868;8.646;2022-10-31T06:04:37;19.93;;;8.87;;
71207;SDS011;58938;49.868;8.646;2022-10-31T06:07:02;19.17;;;9.18;;
71207;SDS011;58938;49.868;8.646;2022-10-31T06:09:28;20.73;;;9.13;;
71207;SDS011;58938;49.868;8.646;2022-10-31T06:11:53;15.63;;;8.03;;
71207;SDS011;58938;49.868;8.646;2022-10-31T06:14:19;17.13;;;7.07;;
71207;SDS011;58938;49.868;8.646;2022-10-31T06:16:44;14.30;;;7.90;;
71207;SDS011;58938;49.868;8.646;2022-10-31T06:19:10;15.23;;;6.87;;
71207;SDS011;58938;49.868;8.646;2022-10-31T06:21:36;14.65;;;6.57;;
71207;SDS011;58938;49.868;8.646;2022-10-31T06:24:01;18.47;;;7.93;;
71207;SDS011;58938;49.868;8.646;2022-10-31T06:26:27;17.75;;;8.13;;
71207;SDS011;58938;49.868;8.646;2022-10-31T06:28:52;15.17;;;7.73;;
71207;SDS011;58938;49.868;8.646;2022-10-31T06:31:18;17.27;;;7.80;;
71207;SDS011;58938;49.868;8.646;2022-10-31T06:33:44;14.73;;;7.47;;
71207;SDS011;58938;49.868;8.646;2022-10-31T06:36:10;19.87;;;6.87;;
71207;SDS011;58938;49.868;8.646;2022-10-31T06:38:36;14.38;;;7.05;;
71207;SDS011;58938;49.868;8.646;2022-10-31T06:41:02;14.53;;;7.40;;
71207;SDS011;58938;49.868;8.646;2022-10-31T06:43:29;15.00;;;7.30;;
71207;SDS011;58938;49.868;8.646;2022-10-31T06:45:55;16.27;;;7.95;;
71207;SDS011;58938;49.868;8.646;2022-10-31T06:48:21;15.07;;;7.67;;
71207;SDS011;58938;49.868;8.646;2022-10-31T06:50:46;16.77;;;7.43;;
71207;SDS011;58938;49.868;8.646;2022-10-31T06:53:12;16.00;;;7.47;;
71207;SDS011;58938;49.868;8.646;2022-10-31T06:55:39;19.52;;;7.80;;
71207;SDS011;58938;49.868;8.646;2022-10-31T06:58:05;15.65;;;7.00;;
71207;SDS011;58938;49.868;8.646;2022-10-31T07:00:31;15.97;;;7.63;;
71207;SDS011;58938;49.868;8.646;2022-10-31T07:03:00;15.23;;;6.97;;
71207;SDS011;58938;49.868;8.646;2022-10-31T07:05:28;15.82;;;7.28;;
71207;SDS011;58938;49.868;8.646;2022-10-31T07:07:54;17.55;;;7.88;;
71207;SDS011;58938;49.868;8.646;2022-10-31T07:10:22;18.20;;;7.82;;
71207;SDS011;58938;49.868;8.646;2022-10-31T07:12:53;15.43;;;7.50;;
71207;SDS011;58938;49.868;8.646;2022-10-31T07:15:23;17.80;;;7.15;;
71207;SDS011;58938;49.868;8.646;2022-10-31T07:17:49;19.10;;;8.32;;
71207;SDS011;58938;49.868;8.646;2022-10-31T07:20:15;17.15;;;7.03;;
71207;SDS011;58938;49.868;8.646;2022-10-31T07:22:41;16.60;;;6.80;;
71207;SDS011;58938;49.868;8.646;2022-10-31T07:25:07;16.45;;;7.53;;
71207;SDS011;58938;49.868;8.646;2022-10-31T07:27:40;14.98;;;6.65;;
71207;SDS011;58938;49.868;8.646;2022-10-31T07:30:07;18.42;;;6.60;;
71207;SDS011;58938;49.868;8.646;2022-10-31T07:32:52;13.10;;;6.23;;
71207;SDS011;58938;49.868;8.646;2022-10-31T07:35:21;12.80;;;6.57;;
71207;SDS011;58938;49.868;8.646;2022-10-31T07:37:51;14.70;;;6.80;;
71207;SDS011;58938;49.868;8.646;2022-10-31T07:40:18;14.15;;;6.35;;
71207;SDS011;58938;49.868;8.646;2022-10-31T07:42:44;14.30;;;6.60;;
71207;SDS011;58938;49.868;8.646;2022-10-31T07:45:12;19.20;;;6.40;;
71207;SDS011;58938;49.868;8.646;2022-10-31T07:47:42;18.23;;;7.18;;
71207;SDS011;58938;49.868;8.646;2022-10-31T07:50:09;13.75;;;6.32;;
71207;SDS011;58938;49.868;8.646;2022-10-31T07:52:37;13.40;;;7.18;;
71207;SDS011;58938;49.868;8.646;2022-10-31T07:55:03;14.93;;;6.80;;
71207;SDS011;58938;49.868;8.646;2022-10-31T07:57:29;15.55;;;6.93;;
71207;SDS011;58938;49.868;8.646;2022-10-31T07:59:55;13.63;;;6.90;;
71207;SDS011;58938;49.868;8.646;2022-10-31T08:02:21;14.27;;;7.10;;
71207;SDS011;58938;49.868;8.646;2022-10-31T08:04:46;12.23;;;7.17;;
71207;SDS011;58938;49.868;8.646;2022-10-31T08:07:12;16.38;;;6.95;;
71207;SDS011;58938;49.868;8.646;2022-10-31T08:09:38;13.40;;;7.07;;
71207;SDS011;58938;49.868;8.646;2022-10-31T08:12:03;16.20;;;6.83;;
71207;SDS011;58938;49.868;8.646;2022-10-31T08:14:29;15.30;;;7.07;;
71207;SDS011;58938;49.868;8.646;2022-10-31T08:16:55;16.48;;;7.60;;
71207;SDS011;58938;49.868;8.646;2022-10-31T08:19:20;21.03;;;7.23;;
71207;SDS011;58938;49.868;8.646;2022-10-31T08:21:46;12.17;;;7.43;;
71207;SDS011;58938;49.868;8.646;2022-10-31T08:24:15;14.73;;;7.03;;
71207;SDS011;58938;49.868;8.646;2022-10-31T08:26:40;12.65;;;6.88;;
71207;SDS011;58938;49.868;8.646;2022-10-31T08:29:06;20.10;;;7.03;;
71207;SDS011;58938;49.868;8.646;2022-10-31T08:31:31;18.87;;;7.53;;
71207;SDS011;58938;49.868;8.646;2022-10-31T08:33:57;13.50;;;6.40;;
71207;SDS011;58938;49.868;8.646;2022-10-31T08:36:23;16.13;;;7.87;;
71207;SDS011;58938;49.868;8.646;2022-10-31T08:38:48;14.82;;;7.80;;
71207;SDS011;58938;49.868;8.646;2022-10-31T08:41:14;16.77;;;7.40;;
71207;SDS011;58938;49.868;8.646;2022-10-31T08:43:39;19.25;;;7.07;;
71207;SDS011;58938;49.868;8.646;2022-10-31T08:46:05;18.27;;;8.07;;
71207;SDS011;58938;49.868;8.646;2022-10-31T08:48:31;14.63;;;7.45;;
71207;SDS011;58938;49.868;8.646;2022-10-31T08:50:57;15.83;;;6.87;;
71207;SDS011;58938;49.868;8.646;2022-10-31T08:53:24;13.88;;;7.03;;
71207;SDS011;58938;49.868;8.646;2022-10-31T08:55:50;13.30;;;7.10;;
71207;SDS011;58938;49.868;8.646;2022-10-31T08:58:19;14.27;;;6.37;;
71207;SDS011;58938;49.868;8.646;2022-10-31T09:00:45;14.70;;;7.18;;
71207;SDS011;58938;49.868;8.646;2022-10-31T09:03:13;14.80;;;6.10;;
71207;SDS011;58938;49.868;8.646;2022-10-31T09:05:40;12.68;;;6.60;;
71207;SDS011;58938;49.868;8.646;2022-10-31T09:08:07;16.73;;;6.10;;
71207;SDS011;58938;49.868;8.646;2022-10-31T09:10:34;12.23;;;6.85;;
71207;SDS011;58938;49.868;8.646;2022-10-31T09:13:01;21.05;;;7.25;;
71207;SDS011;58938;49.868;8.646;2022-10-31T09:15:36;13.63;;;5.97;;
71207;SDS011;58938;49.868;8.646;2022-10-31T09:18:03;13.35;;;6.95;;
71207;SDS011;58938;49.868;8.646;2022-10-31T09:20:34;14.63;;;5.90;;
71207;SDS011;58938;49.868;8.646;2022-10-31T09:23:01;13.68;;;6.57;;
71207;SDS011;58938;49.868;8.646;2022-10-31T09:25:28;13.75;;;6.05;;
71207;SDS011;58938;49.868;8.646;2022-10-31T09:27:55;12.85;;;5.20;;
71207;SDS011;58938;49.868;8.646;2022-10-31T09:30:26;12.88;;;6.20;;
71207;SDS011;58938;49.868;8.646;2022-10-31T09:32:59;13.63;;;5.50;;
71207;SDS011;58938;49.868;8.646;2022-10-31T09:35:26;16.15;;;6.13;;
71207;SDS011;58938;49.868;8.646;2022-10-31T09:37:55;14.00;;;6.13;;
71207;SDS011;58938;49.868;8.646;2022-10-31T09:40:24;12.75;;;5.75;;
71207;SDS011;58938;49.868;8.646;2022-10-31T09:52:01;11.27;;;5.18;;
71207;SDS011;58938;49.868;8.646;2022-10-31T09:57:10;11.93;;;5.37;;
71207;SDS011;58938;49.868;8.646;2022-10-31T09:59:40;13.07;;;5.18;;
71207;SDS011;58938;49.868;8.646;2022-10-31T10:04:49;12.45;;;5.78;;
71207;SDS011;58938;49.868;8.646;2022-10-31T10:07:29;11.65;;;5.35;;
71207;SDS011;58938;49.868;8.646;2022-10-31T10:10:00;9.67;;;4.73;;
71207;SDS011;58938;49.868;8.646;2022-10-31T10:18:04;12.30;;;5.28;;
71207;SDS011;58938;49.868;8.646;2022-10-31T10:20:59;11.32;;;5.65;;
71207;SDS011;58938;49.868;8.646;2022-10-31T10:26:12;14.57;;;4.97;;
71207;SDS011;58938;49.868;8.646;2022-10-31T10:28:39;16.30;;;5.43;;
71207;SDS011;58938;49.868;8.646;2022-10-31T10:31:21;12.00;;;5.33;;
71207;SDS011;58938;49.868;8.646;2022-10-31T10:33:58;13.63;;;5.25;;
71207;SDS011;58938;49.868;8.646;2022-10-31T10:39:18;8.88;;;4.88;;
71207;SDS011;58938;49.868;8.646;2022-10-31T10:41:48;12.60;;;4.95;;
71207;SDS011;58938;49.868;8.646;2022-10-31T10:44:33;10.57;;;5.10;;
71207;SDS011;58938;49.868;8.646;2022-10-31T10:47:21;14.70;;;5.30;;
71207;SDS011;58938;49.868;8.646;2022-10-31T10:50:05;10.85;;;5.50;;
71207;SDS011;58938;49.868;8.646;2022-10-31T10:52:55;10.75;;;5.78;;
71207;SDS011;58938;49.868;8.646;2022-10-31T10:58:08;15.80;;;5.57;;
71207;SDS011;58938;49.868;8.646;2022-10-31T11:00:38;14.57;;;6.20;;
71207;SDS011;58938;49.868;8.646;2022-10-31T11:03:06;10.82;;;5.00;;
71207;SDS011;58938;49.868;8.646;2022-10-31T11:05:36;13.98;;;5.88;;
71207;SDS011;58938;49.868;8.646;2022-10-31T11:08:10;10.90;;;5.57;;
71207;SDS011;58938;49.868;8.646;2022-10-31T11:10:36;11.27;;;5.67;;
71207;SDS011;58938;49.868;8.646;2022-10-31T11:13:04;18.85;;;5.85;;
71207;SDS011;58938;49.868;8.646;2022-10-31T11:15:35;12.20;;;5.50;;
71207;SDS011;58938;49.868;8.646;2022-10-31T11:18:04;10.23;;;5.22;;
71207;SDS011;58938;49.868;8.646;2022-10-31T11:20:34;11.90;;;5.27;;
71207;SDS011;58938;49.868;8.646;2022-10-31T11:23:02;14.43;;;5.70;;
71207;SDS011;58938;49.868;8.646;2022-10-31T11:25:29;12.10;;;5.45;;
71207;SDS011;58938;49.868;8.646;2022-10-31T11:28:00;14.63;;;5.00;;
71207;SDS011;58938;49.868;8.646;2022-10-31T11:30:27;14.55;;;5.95;;
71207;SDS011;58938;49.868;8.646;2022-10-31T11:32:54;14.00;;;6.22;;
71207;SDS011;58938;49.868;8.646;2022-10-31T11:35:21;12.45;;;5.60;;
71207;SDS011;58938;49.868;8.646;2022-10-31T11:37:49;13.40;;;5.18;;
71207;SDS011;58938;49.868;8.646;2022-10-31T11:40:22;14.90;;;5.60;;
71207;SDS011;58938;49.868;8.646;2022-10-31T11:42:49;15.80;;;6.38;;
71207;SDS011;58938;49.868;8.646;2022-10-31T11:47:49;13.07;;;5.78;;
71207;SDS011;58938;49.868;8.646;2022-10-31T11:50:21;15.52;;;5.15;;
71207;SDS011;58938;49.868;8.646;2022-10-31T11:52:51;9.97;;;5.37;;
71207;SDS011;58938;49.868;8.646;2022-10-31T11:55:32;16.70;;;7.32;;
71207;SDS011;58938;49.868;8.646;2022-10-31T11:58:00;13.20;;;6.25;;
71207;SDS011;58938;49.868;8.646;2022-10-31T12:05:47;14.73;;;4.72;;
71207;SDS011;58938;49.868;8.646;2022-10-31T12:08:30;14.88;;;5.30;;
71207;SDS011;58938;49.868;8.646;2022-10-31T12:11:03;14.07;;;5.95;;
71207;SDS011;58938;49.868;8.646;2022-10-31T12:14:08;11.53;;;4.40;;
71207;SDS011;58938;49.868;8.646;2022-10-31T12:16:56;11.65;;;5.53;;
71207;SDS011;58938;49.868;8.646;2022-10-31T12:32:58;10.90;;;5.20;;
71207;SDS011;58938;49.868;8.646;2022-10-31T12:38:38;14.18;;;5.45;;
71207;SDS011;58938;49.868;8.646;2022-10-31T12:41:22;11.00;;;5.53;;
71207;SDS011;58938;49.868;8.646;2022-10-31T12:47:01;10.48;;;6.03;;
71207;SDS011;58938;49.868;8.646;2022-10-31T12:49:58;19.25;;;5.47;;
71207;SDS011;58938;49.868;8.646;2022-10-31T12:58:02;11.23;;;5.03;;
71207;SDS011;58938;49.868;8.646;2022-10-31T13:00:35;12.73;;;5.00;;
71207;SDS011;58938;49.868;8.646;2022-10-31T13:03:17;13.15;;;4.72;;
71207;SDS011;58938;49.868;8.646;2022-10-31T13:05:45;13.85;;;6.03;;
71207;SDS011;58938;49.868;8.646;2022-10-31T13:08:19;13.83;;;5.90;;
71207;SDS011;58938;49.868;8.646;2022-10-31T13:10:51;17.48;;;5.82;;
71207;SDS011;58938;49.868;8.646;2022-10-31T13:16:16;23.92;;;7.88;;
71207;SDS011;58938;49.868;8.646;2022-10-31T13:18:45;14.57;;;6.45;;
71207;SDS011;58938;49.868;8.646;2022-10-31T13:21:34;19.13;;;6.00;;
71207;SDS011;58938;49.868;8.646;2022-10-31T13:24:07;14.02;;;5.85;;
71207;SDS011;58938;49.868;8.646;2022-10-31T13:26:41;13.00;;;5.50;;
71207;SDS011;58938;49.868;8.646;2022-10-31T13:29:29;16.83;;;6.30;;
71207;SDS011;58938;49.868;8.646;2022-10-31T13:31:59;10.95;;;4.88;;
71207;SDS011;58938;49.868;8.646;2022-10-31T13:37:00;10.80;;;4.85;;
71207;SDS011;58938;49.868;8.646;2022-10-31T13:42:35;9.90;;;4.35;;
71207;SDS011;58938;49.868;8.646;2022-10-31T13:45:14;12.07;;;4.80;;
71207;SDS011;58938;49.868;8.646;2022-10-31T13:47:41;8.17;;;4.53;;
71207;SDS011;58938;49.868;8.646;2022-10-31T13:50:24;11.50;;;5.00;;
71207;SDS011;58938;49.868;8.646;2022-10-31T13:52:51;10.45;;;4.50;;
71207;SDS011;58938;49.868;8.646;2022-10-31T14:01:15;11.98;;;4.82;;
71207;SDS011;58938;49.868;8.646;2022-10-31T14:03:45;13.85;;;5.18;;
71207;SDS011;58938;49.868;8.646;2022-10-31T14:06:21;12.90;;;5.05;;
71207;SDS011;58938;49.868;8.646;2022-10-31T14:08:59;11.77;;;4.60;;
71207;SDS011;58938;49.868;8.646;2022-10-31T14:11:25;11.20;;;5.25;;
71207;SDS011;58938;49.868;8.646;2022-10-31T14:13:52;9.60;;;5.35;;
71207;SDS011;58938;49.868;8.646;2022-10-31T14:16:24;14.55;;;5.40;;
71207;SDS011;58938;49.868;8.646;2022-10-31T14:18:58;9.33;;;5.43;;
71207;SDS011;58938;49.868;8.646;2022-10-31T14:21:29;11.80;;;5.10;;
71207;SDS011;58938;49.868;8.646;2022-10-31T14:23:56;11.27;;;4.85;;
71207;SDS011;58938;49.868;8.646;2022-10-31T14:28:48;10.23;;;5.07;;
71207;SDS011;58938;49.868;8.646;2022-10-31T14:37:07;11.73;;;5.30;;
71207;SDS011;58938;49.868;8.646;2022-10-31T14:39:56;14.02;;;5.63;;
71207;SDS011;58938;49.868;8.646;2022-10-31T14:47:58;13.07;;;5.70;;
71207;SDS011;58938;49.868;8.646;2022-10-31T14:50:49;12.47;;;5.13;;
71207;SDS011;58938;49.868;8.646;2022-10-31T14:53:26;14.45;;;5.20;;
71207;SDS011;58938;49.868;8.646;2022-10-31T14:56:04;13.85;;;5.50;;
71207;SDS011;58938;49.868;8.646;2022-10-31T14:58:39;15.27;;;5.40;;
71207;SDS011;58938;49.868;8.646;2022-10-31T15:01:18;11.88;;;5.28;;
71207;SDS011;58938;49.868;8.646;2022-10-31T15:03:49;12.30;;;5.63;;
71207;SDS011;58938;49.868;8.646;2022-10-31T15:06:18;17.05;;;5.43;;
71207;SDS011;58938;49.868;8.646;2022-10-31T15:08:48;14.15;;;5.47;;
71207;SDS011;58938;49.868;8.646;2022-10-31T15:11:17;13.40;;;5.20;;
71207;SDS011;58938;49.868;8.646;2022-10-31T15:13:53;17.42;;;5.65;;
71207;SDS011;58938;49.868;8.646;2022-10-31T15:16:33;13.70;;;5.83;;
71207;SDS011;58938;49.868;8.646;2022-10-31T15:19:07;13.98;;;5.00;;
71207;SDS011;58938;49.868;8.646;2022-10-31T15:21:35;21.15;;;6.35;;
71207;SDS011;58938;49.868;8.646;2022-10-31T15:24:05;14.55;;;6.40;;
71207;SDS011;58938;49.868;8.646;2022-10-31T15:26:32;13.15;;;6.72;;
71207;SDS011;58938;49.868;8.646;2022-10-31T15:31:30;14.45;;;6.35;;
71207;SDS011;58938;49.868;8.646;2022-10-31T15:33:58;11.30;;;5.85;;
71207;SDS011;58938;49.868;8.646;2022-10-31T15:36:30;16.45;;;6.03;;
71207;SDS011;58938;49.868;8.646;2022-10-31T15:38:57;12.55;;;5.95;;
71207;SDS011;58938;49.868;8.646;2022-10-31T15:41:44;14.77;;;5.77;;
71207;SDS011;58938;49.868;8.646;2022-10-31T15:44:34;11.80;;;6.30;;
71207;SDS011;58938;49.868;8.646;2022-10-31T15:47:06;18.35;;;6.80;;
71207;SDS011;58938;49.868;8.646;2022-10-31T15:49:41;14.02;;;6.10;;
71207;SDS011;58938;49.868;8.646;2022-10-31T15:54:58;13.47;;;6.47;;
71207;SDS011;58938;49.868;8.646;2022-10-31T15:57:27;17.42;;;6.70;;
71207;SDS011;58938;49.868;8.646;2022-10-31T15:59:53;18.70;;;6.60;;
71207;SDS011;58938;49.868;8.646;2022-10-31T16:02:21;13.98;;;6.00;;
71207;SDS011;58938;49.868;8.646;2022-10-31T16:04:59;15.13;;;6.47;;
71207;SDS011;58938;49.868;8.646;2022-10-31T16:07:26;15.80;;;6.83;;
71207;SDS011;58938;49.868;8.646;2022-10-31T16:09:55;17.52;;;7.60;;
71207;SDS011;58938;49.868;8.646;2022-10-31T16:12:21;14.43;;;6.55;;
71207;SDS011;58938;49.868;8.646;2022-10-31T16:14:50;13.45;;;6.07;;
71207;SDS011;58938;49.868;8.646;2022-10-31T16:17:19;15.02;;;6.75;;
71207;SDS011;58938;49.868;8.646;2022-10-31T16:19:48;18.30;;;6.77;;
71207;SDS011;58938;49.868;8.646;2022-10-31T16:22:41;12.27;;;6.38;;
71207;SDS011;58938;49.868;8.646;2022-10-31T16:25:13;11.32;;;6.32;;
71207;SDS011;58938;49.868;8.646;2022-10-31T16:27:51;12.93;;;6.03;;
71207;SDS011;58938;49.868;8.646;2022-10-31T16:33:03;14.90;;;6.53;;
71207;SDS011;58938;49.868;8.646;2022-10-31T16:35:44;11.35;;;6.97;;
71207;SDS011;58938;49.868;8.646;2022-10-31T16:38:10;12.82;;;5.35;;
71207;SDS011;58938;49.868;8.646;2022-10-31T16:40:37;13.43;;;5.63;;
71207;SDS011;58938;49.868;8.646;2022-10-31T16:43:03;12.75;;;5.85;;
71207;SDS011;58938;49.868;8.646;2022-10-31T16:45:30;10.67;;;5.80;;
71207;SDS011;58938;49.868;8.646;2022-10-31T16:48:02;12.02;;;6.57;;
71207;SDS011;58938;49.868;8.646;2022-10-31T16:50:30;15.57;;;6.32;;
71207;SDS011;58938;49.868;8.646;2022-10-31T16:52:56;13.03;;;6.07;;
71207;SDS011;58938;49.868;8.646;2022-10-31T16:55:22;12.57;;;5.97;;
71207;SDS011;58938;49.868;8.646;2022-10-31T16:57:48;16.77;;;6.30;;